Port Hood, Canada
Current Conditions -  °F | °C
As of 8:00 AM on Sunday 25 Jan 2015 (Local Time) from CYPD Reporting Station
Overcast Overcast  
Wind Chill: -8°   Ceiling: 1500
Heat Index:   Visibility: 9mi
Dew Point: -2°   Wind: 32mph
Humidity: 87%   Direction: 280°W
Pressure: 28.9"   Gusts: 46mph
Location:  46.03°N, 61.53°W
Report Text: CYPD 251200Z AUTO 28028G40KT 9SM OVC015 M00/M02 A2890 RMK PRESRR SLP791
Loading
Personal Weather Stations






























Interactive Weather Map New forecast layout! Learn more

10-Day Weather Forecast

Advertisements
Track Severe Weather on mobile